createdAt,value
2023-03-01T00:03:08.965Z,0.34
2023-03-01T00:08:10.437Z,0.27
2023-03-01T00:13:11.940Z,0.15
2023-03-01T00:18:13.375Z,0.12
2023-03-01T00:23:14.781Z,0.08
2023-03-01T00:28:17.038Z,0.04
2023-03-01T00:33:19.094Z,0.04
2023-03-01T00:38:20.506Z,-0.01
2023-03-01T00:43:22.280Z,-0.02
2023-03-01T00:48:23.687Z,-0.08
2023-03-01T00:53:25.089Z,-0.12
2023-03-01T00:58:27.198Z,-0.10
2023-03-01T01:03:28.623Z,-0.13
2023-03-01T01:08:30.043Z,-0.14
2023-03-01T01:13:31.469Z,-0.21
2023-03-01T01:18:33.402Z,-0.26
2023-03-01T01:23:35.146Z,-0.30
2023-03-01T01:28:36.929Z,-0.35
2023-03-01T01:33:38.507Z,-0.37
2023-03-01T01:38:40.308Z,-0.44
2023-03-01T01:43:44.566Z,-0.45
2023-03-01T01:48:49.239Z,-0.52
2023-03-01T01:53:57.146Z,-0.49
2023-03-01T01:58:58.774Z,-0.59
2023-03-01T02:04:00.609Z,-0.64
2023-03-01T02:09:07.811Z,-0.66
2023-03-01T02:14:09.599Z,-0.65
2023-03-01T02:19:36.312Z,-0.71
2023-03-01T02:25:04.042Z,-0.76
2023-03-01T02:30:07.578Z,-0.83
2023-03-01T02:35:12.819Z,-0.88
2023-03-01T02:40:19.668Z,-0.90
2023-03-01T02:45:22.155Z,-0.91
2023-03-01T02:50:56.447Z,-0.99
2023-03-01T02:55:58.094Z,-1.01
2023-03-01T03:01:01.911Z,-1.01
2023-03-01T03:06:03.546Z,-1.05
2023-03-01T03:11:05.087Z,-1.03
2023-03-01T03:16:07.126Z,-1.03
2023-03-01T03:21:11.378Z,-1.04
2023-03-01T03:26:14.400Z,-1.06
2023-03-01T03:31:15.932Z,-1.15
2023-03-01T03:36:18.763Z,-1.19
2023-03-01T03:41:20.441Z,-1.24
2023-03-01T03:46:22.009Z,-1.26
2023-03-01T03:51:23.803Z,-1.35
2023-03-01T03:56:28.625Z,-1.34
2023-03-01T04:01:30.448Z,-1.34
2023-03-01T04:06:32.275Z,-1.41
2023-03-01T04:11:35.632Z,-1.37
2023-03-01T04:16:37.126Z,-1.39
2023-03-01T04:21:38.669Z,-1.42
2023-03-01T04:26:40.112Z,-1.39
2023-03-01T04:31:42.185Z,-1.53
2023-03-01T04:36:44.040Z,-1.49
2023-03-01T04:41:45.571Z,-1.51
2023-03-01T04:46:50.676Z,-1.48
2023-03-01T04:51:52.100Z,-1.52
2023-03-01T04:56:53.531Z,-1.45
2023-03-01T05:01:57.788Z,-1.49
2023-03-01T05:06:59.768Z,-1.49
2023-03-01T05:12:01.259Z,-1.54
2023-03-01T05:17:04.927Z,-1.56
2023-03-01T05:22:06.637Z,-1.57
2023-03-01T05:27:08.067Z,-1.62
2023-03-01T05:32:10.743Z,-1.62
2023-03-01T05:37:12.201Z,-1.64
2023-03-01T05:42:13.632Z,-1.60
2023-03-01T05:47:15.063Z,-1.63
2023-03-01T05:52:16.612Z,-1.53
2023-03-01T05:57:18.040Z,-1.35
2023-03-01T06:02:19.607Z,-1.38
2023-03-01T06:07:21.039Z,-1.28
2023-03-01T06:12:22.459Z,-1.19
2023-03-01T06:17:23.956Z,-1.13
2023-03-01T06:22:25.396Z,-1.03
2023-03-01T06:27:27.012Z,-0.96
2023-03-01T06:32:28.531Z,-0.85
2023-03-01T06:37:30.008Z,-0.68
2023-03-01T06:42:31.576Z,-0.51
2023-03-01T06:47:34.179Z,-0.38
2023-03-01T06:52:35.930Z,-0.18
2023-03-01T06:57:37.408Z,-0.15
2023-03-01T07:02:38.877Z,-0.14
2023-03-01T07:07:40.350Z,-0.06
2023-03-01T07:12:42.221Z,-0.03
2023-03-01T07:17:45.482Z,0.04
2023-03-01T07:22:46.937Z,0.25
2023-03-01T07:27:53.029Z,0.39
2023-03-01T07:32:55.890Z,0.54
2023-03-01T07:37:57.480Z,0.81
2023-03-01T07:42:59.589Z,1.03
2023-03-01T07:48:01.173Z,1.09
2023-03-01T07:53:03.614Z,1.26
2023-03-01T07:58:05.413Z,1.57
2023-03-01T08:03:06.931Z,1.77
2023-03-01T08:08:08.466Z,2.00
2023-03-01T08:13:09.884Z,2.07
2023-03-01T08:18:11.328Z,2.45
2023-03-01T08:23:13.063Z,2.78
2023-03-01T08:28:14.712Z,2.91
2023-03-01T08:33:16.244Z,3.05
2023-03-01T08:38:17.735Z,3.27
2023-03-01T08:43:19.390Z,3.35
2023-03-01T08:48:20.870Z,3.45
2023-03-01T08:53:22.323Z,3.73
2023-03-01T08:58:23.811Z,3.79
2023-03-01T09:03:26.350Z,3.92
2023-03-01T09:08:27.902Z,4.02
2023-03-01T09:13:32.076Z,4.02
2023-03-01T09:18:34.455Z,4.06
2023-03-01T09:23:41.816Z,4.33
2023-03-01T09:28:43.825Z,4.55
2023-03-01T09:33:48.912Z,4.68
2023-03-01T09:38:51.006Z,4.57
2023-03-01T09:43:58.299Z,4.19
2023-03-01T09:49:06.384Z,4.12
2023-03-01T09:54:11.376Z,4.22
2023-03-01T09:59:24.234Z,4.79
2023-03-01T10:04:28.689Z,5.07
2023-03-01T10:09:35.250Z,5.28
2023-03-01T10:14:45.015Z,5.43
2023-03-01T10:19:47.988Z,5.57
2023-03-01T10:24:52.858Z,5.59
2023-03-01T10:30:12.852Z,5.89
2023-03-01T10:35:26.555Z,6.07
2023-03-01T10:40:27.997Z,6.13
2023-03-01T10:45:40.408Z,5.67
2023-03-01T10:50:44.354Z,5.91
2023-03-01T10:55:46.003Z,5.99
2023-03-01T11:00:53.615Z,5.94
2023-03-01T11:06:03.330Z,6.18
2023-03-01T11:11:07.670Z,5.97
2023-03-01T11:16:13.453Z,6.28
2023-03-01T11:21:16.905Z,6.09
2023-03-01T11:26:19.455Z,6.27
2023-03-01T11:31:23.094Z,6.34
2023-03-01T11:36:37.679Z,6.21
2023-03-01T11:41:41.731Z,6.28
2023-03-01T11:47:08.549Z,6.38
2023-03-01T11:52:17.949Z,6.55
2023-03-01T11:57:47.967Z,6.52
2023-03-01T12:03:10.525Z,6.47
2023-03-01T12:08:16.626Z,6.34
2023-03-01T12:13:55.548Z,6.29
2023-03-01T12:19:09.724Z,6.29
2023-03-01T12:24:29.511Z,6.39
2023-03-01T12:30:02.002Z,6.41
2023-03-01T12:35:28.965Z,6.56
2023-03-01T12:40:34.996Z,6.66
2023-03-01T12:46:19.766Z,6.59
2023-03-01T12:51:27.639Z,6.49
2023-03-01T12:56:31.872Z,6.85
2023-03-01T13:01:36.451Z,6.80
2023-03-01T13:06:56.565Z,6.64
2023-03-01T13:11:58.608Z,6.85
2023-03-01T13:17:00.210Z,6.78
2023-03-01T13:22:29.743Z,6.88
2023-03-01T13:27:31.473Z,6.79
2023-03-01T13:32:44.484Z,6.78
2023-03-01T13:37:46.962Z,6.63
2023-03-01T13:43:04.814Z,6.60
2023-03-01T13:48:16.775Z,6.74
2023-03-01T13:53:22.572Z,6.75
2023-03-01T13:58:27.187Z,7.00
2023-03-01T14:03:30.758Z,6.92
2023-03-01T14:08:32.557Z,6.92
2023-03-01T14:14:04.909Z,7.02
2023-03-01T14:19:27.633Z,6.80
2023-03-01T14:24:47.374Z,6.84
2023-03-01T14:30:04.729Z,6.87
2023-03-01T14:35:25.882Z,6.93
2023-03-01T14:40:33.960Z,6.83
2023-03-01T14:45:35.484Z,6.87
2023-03-01T14:50:43.295Z,6.85
2023-03-01T14:55:49.380Z,6.94
2023-03-01T15:01:03.035Z,6.85
2023-03-01T15:06:06.391Z,6.74
2023-03-01T15:11:29.111Z,6.61
2023-03-01T15:16:33.095Z,6.45
2023-03-01T15:21:37.227Z,6.45
2023-03-01T15:26:44.232Z,6.43
2023-03-01T15:32:05.945Z,6.28
2023-03-01T15:37:35.960Z,6.21
2023-03-01T15:42:38.564Z,6.14
2023-03-01T15:47:41.897Z,6.08
2023-03-01T15:52:44.452Z,6.04
2023-03-01T15:57:45.978Z,5.98
2023-03-01T16:02:47.489Z,5.94
2023-03-01T16:07:49.014Z,5.85
2023-03-01T16:12:53.277Z,5.80
2023-03-01T16:17:55.131Z,5.70
2023-03-01T16:23:01.092Z,5.55
2023-03-01T16:28:05.976Z,5.44
2023-03-01T16:33:24.486Z,5.31
2023-03-01T16:38:32.592Z,5.18
2023-03-01T16:43:34.071Z,5.11
2023-03-01T16:48:35.506Z,5.02
2023-03-01T16:53:38.208Z,4.95
2023-03-01T16:58:40.857Z,4.72
2023-03-01T17:03:42.939Z,4.51
2023-03-01T17:08:44.476Z,4.44
2023-03-01T17:13:47.321Z,4.35
2023-03-01T17:18:49.470Z,4.29
2023-03-01T17:23:56.248Z,4.26
2023-03-01T17:28:59.126Z,4.24
2023-03-01T17:34:01.754Z,4.18
2023-03-01T17:39:03.416Z,4.11
2023-03-01T17:44:04.998Z,4.00
2023-03-01T17:49:06.444Z,3.83
2023-03-01T17:54:07.881Z,3.74
2023-03-01T17:59:09.319Z,3.66
2023-03-01T18:04:11.245Z,3.63
2023-03-01T18:09:12.710Z,3.55
2023-03-01T18:14:14.161Z,3.44
2023-03-01T18:19:15.619Z,3.37
2023-03-01T18:24:17.050Z,3.27
2023-03-01T18:29:18.495Z,3.14
2023-03-01T18:34:19.952Z,2.97
2023-03-01T18:39:21.408Z,2.85
2023-03-01T18:44:22.893Z,2.73
2023-03-01T18:49:26.316Z,2.66
2023-03-01T18:54:27.830Z,2.57
2023-03-01T18:59:30.012Z,2.50
2023-03-01T19:04:31.588Z,2.40
2023-03-01T19:09:33.030Z,2.31
2023-03-01T19:14:34.801Z,2.25
2023-03-01T19:19:36.433Z,2.21
2023-03-01T19:24:38.220Z,2.16
2023-03-01T19:29:39.808Z,2.03
2023-03-01T19:34:42.219Z,2.03
2023-03-01T19:39:43.713Z,2.03
2023-03-01T19:44:45.169Z,2.03
2023-03-01T19:49:46.925Z,2.03
2023-03-01T19:54:49.369Z,1.93
2023-03-01T19:59:51.965Z,1.88
2023-03-01T20:04:53.410Z,1.89
2023-03-01T20:09:54.826Z,1.83
2023-03-01T20:14:57.038Z,1.75
2023-03-01T20:19:58.536Z,1.67
2023-03-01T20:25:00.011Z,1.63
2023-03-01T20:30:01.431Z,1.61
2023-03-01T20:35:03.253Z,1.57
2023-03-01T20:40:05.498Z,1.48
2023-03-01T20:45:07.414Z,1.45
2023-03-01T20:50:09.560Z,1.41
2023-03-01T20:55:11.919Z,1.37
2023-03-01T21:00:13.682Z,1.36
2023-03-01T21:05:15.222Z,1.30
2023-03-01T21:10:17.159Z,1.27
2023-03-01T21:15:28.682Z,1.27
2023-03-01T21:20:30.983Z,1.24
2023-03-01T21:25:35.036Z,1.28
2023-03-01T21:30:36.715Z,1.24
2023-03-01T21:35:38.212Z,1.20
2023-03-01T21:40:39.675Z,1.11
2023-03-01T21:45:41.228Z,1.07
2023-03-01T21:50:42.693Z,1.08
2023-03-01T21:55:48.576Z,1.03
2023-03-01T22:00:50.106Z,1.00
2023-03-01T22:05:59.792Z,0.99
2023-03-01T22:11:02.453Z,0.94
2023-03-01T22:16:04.236Z,0.87
2023-03-01T22:21:09.088Z,0.76
2023-03-01T22:26:34.958Z,0.65
2023-03-01T22:31:37.322Z,0.62
2023-03-01T22:36:41.640Z,0.71
2023-03-01T22:41:46.003Z,0.64
2023-03-01T22:46:47.879Z,0.64
2023-03-01T22:51:50.132Z,0.60
2023-03-01T22:56:51.700Z,0.62
2023-03-01T23:01:53.850Z,0.59
2023-03-01T23:06:55.351Z,0.56
2023-03-01T23:11:59.016Z,0.51
2023-03-01T23:17:01.653Z,0.47
2023-03-01T23:22:03.235Z,0.47
2023-03-01T23:27:04.793Z,0.35
2023-03-01T23:32:06.266Z,0.39
2023-03-01T23:37:09.945Z,0.31
2023-03-01T23:42:11.382Z,0.34
2023-03-01T23:47:12.809Z,0.29
2023-03-01T23:52:15.249Z,0.31
2023-03-01T23:57:16.683Z,0.32
